Rapid City, South Dakota
Current Conditions -  °F | °C
As of 2:58 AM on Thursday 18 Dec 2014 (Local Time) from KRCA Reporting Station
Overcast Overcast  
Wind Chill: 15°   Ceiling: 400
Heat Index: 22°   Visibility: 10mi
Dew Point: 20°   Wind: 6mph
Humidity: 92%   Direction: 170°S
Pressure: 29.99"   Gusts: NA
Location:  44.08°N, 103.23°W
Report Text: KRCA 180958Z AUTO 17005KT 10SM OVC004 M05/M07 A2999 RMK AO2 SLP206 T10551066 $
Loading
Personal Weather Stations






























Interactive Weather Map New forecast layout! Learn more

10-Day Weather Forecast

Advertisements
Track Severe Weather on mobile